Time;durP1;ratioP1;P1;durP2;ratioP2;P2;SDS_P1;SDS_P2;PMS_P1;PMS_P2;Temp;Humidity;BMP_temperature;BMP_pressure;BME280_temperature;BME280_humidity;BME280_pressure;Samples;Min_cycle;Max_cycle;Signal;HPM_P1;HPM_P2
2023/08/10 00:01:19;;;;;;;3.25;1.50;;;;;;;;;;4963675;28;99236;-72
2023/08/10 00:03:46;;;;;;;7.32;1.38;;;;;;;;;;4950774;28;98005;-72
2023/08/10 00:06:13;;;;;;;2.65;0.98;;;;;;;;;;4949883;28;99612;-71
2023/08/10 00:08:40;;;;;;;4.60;1.30;;;;;;;;;;4969750;28;99176;-71
2023/08/10 00:11:07;;;;;;;1.83;1.65;;;;;;;;;;4990395;28;98665;-71
2023/08/10 00:13:33;;;;;;;4.60;1.38;;;;;;;;;;4988805;28;99118;-71
2023/08/10 00:15:59;;;;;;;4.53;1.40;;;;;;;;;;4990517;28;98213;-71
2023/08/10 00:18:26;;;;;;;1.35;1.20;;;;;;;;;;4993245;28;99815;-71
2023/08/10 00:20:52;;;;;;;3.88;1.63;;;;;;;;;;4992003;28;99148;-72
2023/08/10 00:23:19;;;;;;;8.18;1.40;;;;;;;;;;4990233;28;98206;-72
2023/08/10 00:25:45;;;;;;;1.45;1.23;;;;;;;;;;4992982;28;98618;-71
2023/08/10 00:28:11;;;;;;;4.50;1.15;;;;;;;;;;4991438;28;99098;-72
2023/08/10 00:30:38;;;;;;;4.75;1.50;;;;;;;;;;4996236;28;98209;-72
2023/08/10 00:33:05;;;;;;;6.88;2.83;;;;;;;;;;4992913;28;98749;-72
2023/08/10 00:35:37;;;;;;;3.67;1.33;;;;;;;;;;4992000;28;98217;-71
2023/08/10 00:38:04;;;;;;;3.63;1.25;;;;;;;;;;4992932;28;99317;-72
2023/08/10 00:40:30;;;;;;;4.15;1.48;;;;;;;;;;4991571;28;100068;-72
2023/08/10 00:42:58;;;;;;;2.55;1.10;;;;;;;;;;4992210;28;98305;-71
2023/08/10 00:45:24;;;;;;;1.52;1.23;;;;;;;;;;4992187;28;98980;-72
2023/08/10 00:47:52;;;;;;;3.03;1.40;;;;;;;;;;4981394;28;99128;-72
2023/08/10 00:50:20;;;;;;;2.65;1.60;;;;;;;;;;5003863;28;98289;-71
2023/08/10 00:52:48;;;;;;;2.00;1.50;;;;;;;;;;4975713;28;98475;-71
2023/08/10 00:55:14;;;;;;;4.78;1.40;;;;;;;;;;5004304;27;98243;-72
2023/08/10 00:57:41;;;;;;;3.67;1.38;;;;;;;;;;5004197;28;98709;-70
2023/08/10 01:00:10;;;;;;;5.68;1.52;;;;;;;;;;4988633;28;98738;-70
2023/08/10 01:02:38;;;;;;;10.10;1.80;;;;;;;;;;4972095;28;98269;-71
2023/08/10 01:05:06;;;;;;;2.75;1.38;;;;;;;;;;4972999;28;98457;-72
2023/08/10 01:07:39;;;;;;;3.03;1.45;;;;;;;;;;4972389;28;98806;-72
2023/08/10 01:10:05;;;;;;;;;;;;;;;;;;4971935;28;98206;-71
2023/08/10 01:12:43;;;;;;;4.97;2.13;;;;;;;;;;4974568;28;100791;-72
2023/08/10 01:15:09;;;;;;;3.53;1.25;;;;;;;;;;4992141;28;98934;-72
2023/08/10 01:17:39;;;;;;;7.25;1.67;;;;;;;;;;4990453;28;101438;-72
2023/08/10 01:20:09;;;;;;;4.47;1.52;;;;;;;;;;4991848;28;98979;-72
2023/08/10 01:22:55;;;;;;;4.38;1.40;;;;;;;;;;4992252;28;97876;-73
2023/08/10 01:25:23;;;;;;;4.40;1.38;;;;;;;;;;4990259;28;100992;-72
2023/08/10 01:27:49;;;;;;;3.50;1.40;;;;;;;;;;4990256;28;101695;-71
2023/08/10 01:30:16;;;;;;;2.25;1.30;;;;;;;;;;4991234;28;99024;-72
2023/08/10 01:32:43;;;;;;;6.75;1.67;;;;;;;;;;4991221;28;99517;-72
2023/08/10 01:35:10;;;;;;;1.85;1.30;;;;;;;;;;5007424;28;101926;-72
2023/08/10 01:37:37;;;;;;;1.88;1.20;;;;;;;;;;4985897;28;98214;-71
2023/08/10 01:40:08;;;;;;;1.70;1.40;;;;;;;;;;4986798;28;99251;-71
2023/08/10 01:42:34;;;;;;;4.00;1.25;;;;;;;;;;4970762;28;98027;-72
2023/08/10 01:45:03;;;;;;;2.83;1.38;;;;;;;;;;4971322;28;98583;-71
2023/08/10 01:48:03;;;;;;;3.72;1.40;;;;;;;;;;4971030;28;99958;-72
2023/08/10 01:50:33;;;;;;;2.33;1.30;;;;;;;;;;4964079;28;98388;-72
2023/08/10 01:53:03;;;;;;;3.60;1.25;;;;;;;;;;4989403;28;101140;-72
2023/08/10 01:55:30;;;;;;;3.60;1.48;;;;;;;;;;4991347;28;98672;-71
2023/08/10 01:57:56;;;;;;;5.75;1.65;;;;;;;;;;4992950;28;98093;-72
2023/08/10 02:00:23;;;;;;;1.73;1.13;;;;;;;;;;4990809;28;98975;-72
2023/08/10 02:02:49;;;;;;;2.70;1.25;;;;;;;;;;4991773;28;98232;-72
2023/08/10 02:05:16;;;;;;;3.70;1.45;;;;;;;;;;4991126;28;98232;-72
2023/08/10 02:07:48;;;;;;;7.35;1.73;;;;;;;;;;4976044;28;100421;-72
2023/08/10 02:10:15;;;;;;;;;;;;;;;;;;4970898;28;98241;-71
2023/08/10 02:12:41;;;;;;;5.80;1.60;;;;;;;;;;4970473;28;118978;-72
2023/08/10 02:15:08;;;;;;;2.95;1.20;;;;;;;;;;4969697;28;101597;-71
2023/08/10 02:17:38;;;;;;;7.18;1.63;;;;;;;;;;4971273;28;98347;-72
2023/08/10 02:20:14;;;;;;;3.67;1.35;;;;;;;;;;4973562;28;99334;-71
2023/08/10 02:22:42;;;;;;;5.95;1.40;;;;;;;;;;4971651;28;98167;-72
2023/08/10 02:25:09;;;;;;;1.63;1.30;;;;;;;;;;4979720;28;99410;-71
2023/08/10 02:27:36;;;;;;;2.40;1.33;;;;;;;;;;4988716;28;100352;-71
2023/08/10 02:30:02;;;;;;;3.97;1.50;;;;;;;;;;4991117;28;98161;-71
2023/08/10 02:32:29;;;;;;;3.50;1.52;;;;;;;;;;4991101;28;98249;-72
2023/08/10 02:34:55;;;;;;;1.83;1.20;;;;;;;;;;4990509;28;98711;-71
2023/08/10 02:37:22;;;;;;;3.65;1.23;;;;;;;;;;4990261;28;99296;-71
2023/08/10 02:39:49;;;;;;;4.93;1.33;;;;;;;;;;4990774;28;98536;-72
2023/08/10 02:42:16;;;;;;;3.45;1.50;;;;;;;;;;5002799;28;99149;-71
2023/08/10 02:44:43;;;;;;;1.55;1.08;;;;;;;;;;5010783;28;98912;-72
2023/08/10 02:47:09;;;;;;;1.25;1.15;;;;;;;;;;5008436;28;100249;-73
2023/08/10 02:49:36;;;;;;;4.80;1.30;;;;;;;;;;5010945;28;98162;-71
2023/08/10 02:52:03;;;;;;;7.57;1.67;;;;;;;;;;4973708;28;99857;-72
2023/08/10 02:54:29;;;;;;;1.73;1.33;;;;;;;;;;4989012;28;98756;-72
2023/08/10 02:56:56;;;;;;;2.53;1.50;;;;;;;;;;4990858;28;98139;-72
2023/08/10 02:59:22;;;;;;;1.70;1.33;;;;;;;;;;4989815;28;99333;-72
2023/08/10 03:01:49;;;;;;;1.80;1.48;;;;;;;;;;4988396;28;100238;-71
2023/08/10 03:04:16;;;;;;;3.13;1.55;;;;;;;;;;4992734;28;98242;-71
2023/08/10 03:06:43;;;;;;;2.45;1.60;;;;;;;;;;4980159;28;101787;-71
2023/08/10 03:09:09;;;;;;;1.45;1.35;;;;;;;;;;4970055;28;98364;-71
2023/08/10 03:11:36;;;;;;;7.15;1.92;;;;;;;;;;4971295;28;98261;-71
2023/08/10 03:14:02;;;;;;;3.83;1.40;;;;;;;;;;4969377;28;100911;-71
2023/08/10 03:16:30;;;;;;;1.42;1.33;;;;;;;;;;4980923;28;98905;-72
2023/08/10 03:18:57;;;;;;;4.28;1.63;;;;;;;;;;4988975;28;100656;-72
2023/08/10 03:21:24;;;;;;;2.65;1.70;;;;;;;;;;4989901;28;99029;-72
2023/08/10 03:23:50;;;;;;;3.92;1.50;;;;;;;;;;4988226;28;99089;-72
2023/08/10 03:26:16;;;;;;;2.97;1.40;;;;;;;;;;4993052;28;98284;-71
2023/08/10 03:28:43;;;;;;;1.98;1.45;;;;;;;;;;4990276;28;98144;-71
2023/08/10 03:31:12;;;;;;;2.63;1.40;;;;;;;;;;4988371;28;98484;-72
2023/08/10 03:33:40;;;;;;;2.20;1.40;;;;;;;;;;4990787;28;98719;-71
2023/08/10 03:36:07;;;;;;;2.35;1.45;;;;;;;;;;4985487;28;100608;-72
2023/08/10 03:38:33;;;;;;;1.42;1.30;;;;;;;;;;4968658;28;100719;-71
2023/08/10 03:41:00;;;;;;;2.65;1.27;;;;;;;;;;4970824;28;98989;-72
2023/08/10 03:43:26;;;;;;;2.67;1.50;;;;;;;;;;5000804;28;98051;-72
2023/08/10 03:45:53;;;;;;;5.18;1.60;;;;;;;;;;5001901;28;98634;-71
2023/08/10 03:48:20;;;;;;;3.42;1.30;;;;;;;;;;4971747;28;100219;-72
2023/08/10 03:50:48;;;;;;;1.80;1.58;;;;;;;;;;4984941;28;99559;-72
2023/08/10 03:53:14;;;;;;;4.68;2.40;;;;;;;;;;4978851;28;98854;-72
2023/08/10 03:55:43;;;;;;;2.85;1.85;;;;;;;;;;4973638;28;98219;-72
2023/08/10 03:58:10;;;;;;;8.45;1.90;;;;;;;;;;4971453;28;98629;-71
2023/08/10 04:00:37;;;;;;;1.48;1.40;;;;;;;;;;4971701;28;100948;-72
2023/08/10 04:03:04;;;;;;;1.70;1.60;;;;;;;;;;4974016;28;98226;-72
2023/08/10 04:05:30;;;;;;;6.30;1.75;;;;;;;;;;4971313;28;99390;-72
2023/08/10 04:07:57;;;;;;;2.72;1.80;;;;;;;;;;4992856;28;98777;-73
2023/08/10 04:10:23;;;;;;;2.05;1.63;;;;;;;;;;4991894;28;100974;-72
2023/08/10 04:12:50;;;;;;;4.05;1.92;;;;;;;;;;4992652;28;98024;-71
2023/08/10 04:15:16;;;;;;;1.50;1.38;;;;;;;;;;4991468;28;98236;-71
2023/08/10 04:17:43;;;;;;;1.77;1.48;;;;;;;;;;4993307;28;99025;-72
2023/08/10 04:20:09;;;;;;;5.03;1.77;;;;;;;;;;4992084;28;100348;-72
2023/08/10 04:22:36;;;;;;;6.40;1.80;;;;;;;;;;4993683;28;98323;-72
2023/08/10 04:25:03;;;;;;;3.90;1.20;;;;;;;;;;4993781;28;99350;-72
2023/08/10 04:27:31;;;;;;;3.17;1.65;;;;;;;;;;4991227;28;99920;-72
2023/08/10 04:29:58;;;;;;;4.25;1.98;;;;;;;;;;4996236;28;98269;-72
2023/08/10 04:32:24;;;;;;;3.67;1.80;;;;;;;;;;4992178;28;99034;-72
2023/08/10 04:34:52;;;;;;;6.18;1.90;;;;;;;;;;4992704;28;98331;-72
2023/08/10 04:37:19;;;;;;;3.90;1.60;;;;;;;;;;4977141;28;98657;-71
2023/08/10 04:39:45;;;;;;;3.33;1.40;;;;;;;;;;4972118;28;99979;-72
2023/08/10 04:42:12;;;;;;;5.15;1.70;;;;;;;;;;4991380;28;98178;-71
2023/08/10 04:44:38;;;;;;;2.13;1.92;;;;;;;;;;4992660;28;99697;-72
2023/08/10 04:47:05;;;;;;;2.40;1.58;;;;;;;;;;4991343;28;100539;-72
2023/08/10 04:49:31;;;;;;;4.97;2.63;;;;;;;;;;4992590;28;98253;-73
2023/08/10 04:51:58;;;;;;;4.50;1.73;;;;;;;;;;4990047;28;99525;-72
2023/08/10 04:54:24;;;;;;;6.15;2.38;;;;;;;;;;4971366;28;98280;-72
2023/08/10 04:56:51;;;;;;;5.57;2.20;;;;;;;;;;4973267;28;98430;-72
2023/08/10 04:59:17;;;;;;;5.30;1.73;;;;;;;;;;4991765;28;99290;-72
2023/08/10 05:01:44;;;;;;;3.70;2.15;;;;;;;;;;4989781;28;100943;-72
2023/08/10 05:04:10;;;;;;;2.85;1.65;;;;;;;;;;4992962;28;98775;-72
2023/08/10 05:06:37;;;;;;;5.47;2.58;;;;;;;;;;4992400;28;100134;-72
2023/08/10 05:09:06;;;;;;;5.25;2.95;;;;;;;;;;4991871;28;98221;-73
2023/08/10 05:11:32;;;;;;;7.30;2.72;;;;;;;;;;4992534;28;99439;-72
2023/08/10 05:13:59;;;;;;;3.13;2.83;;;;;;;;;;4995554;28;99138;-72
2023/08/10 05:16:25;;;;;;;9.05;2.92;;;;;;;;;;4991189;28;98461;-72
2023/08/10 05:18:52;;;;;;;9.77;3.60;;;;;;;;;;4991600;28;100344;-70
2023/08/10 05:21:18;;;;;;;9.05;3.50;;;;;;;;;;4991564;28;98193;-72
2023/08/10 05:23:45;;;;;;;4.25;3.22;;;;;;;;;;4991210;28;99344;-72
2023/08/10 05:26:12;;;;;;;6.00;3.20;;;;;;;;;;4972729;28;99179;-72
2023/08/10 05:28:38;;;;;;;10.52;3.38;;;;;;;;;;4971763;28;98223;-71
2023/08/10 05:31:04;;;;;;;9.00;3.20;;;;;;;;;;4972528;28;98531;-71
2023/08/10 05:33:31;;;;;;;3.38;3.17;;;;;;;;;;5011297;28;99144;-71
2023/08/10 05:35:57;;;;;;;5.30;2.95;;;;;;;;;;5014743;28;98214;-71
2023/08/10 05:38:25;;;;;;;4.40;3.38;;;;;;;;;;5011423;28;99178;-71
2023/08/10 05:40:51;;;;;;;5.70;3.20;;;;;;;;;;5012010;28;98249;-72
2023/08/10 05:43:18;;;;;;;5.03;3.08;;;;;;;;;;5010609;28;98468;-71
2023/08/10 05:45:45;;;;;;;7.00;3.33;;;;;;;;;;5011014;28;99852;-71
2023/08/10 05:48:11;;;;;;;5.88;2.80;;;;;;;;;;5010386;28;98960;-71
2023/08/10 05:50:38;;;;;;;10.23;3.40;;;;;;;;;;5010492;28;98504;-71
2023/08/10 05:53:06;;;;;;;5.78;3.50;;;;;;;;;;4993092;28;100398;-71
2023/08/10 05:55:33;;;;;;;6.18;3.20;;;;;;;;;;4990877;28;99688;-72
2023/08/10 05:58:00;;;;;;;5.45;2.85;;;;;;;;;;4993498;28;98980;-70
2023/08/10 06:00:29;;;;;;;3.08;2.78;;;;;;;;;;4991355;28;98296;-71
2023/08/10 06:02:55;;;;;;;5.03;3.05;;;;;;;;;;4991013;28;98642;-73
2023/08/10 06:05:22;;;;;;;4.70;2.90;;;;;;;;;;4978166;28;99975;-73
2023/08/10 06:07:49;;;;;;;3.50;2.70;;;;;;;;;;4971007;28;98235;-71
2023/08/10 06:10:16;;;;;;;10.32;3.28;;;;;;;;;;4990714;28;99481;-71
2023/08/10 06:12:43;;;;;;;3.53;2.42;;;;;;;;;;4990381;28;99364;-72
2023/08/10 06:15:09;;;;;;;2.75;2.53;;;;;;;;;;4990672;28;98225;-72
2023/08/10 06:17:37;;;;;;;3.08;2.30;;;;;;;;;;4988372;28;100536;-71
2023/08/10 06:20:11;;;;;;;4.00;2.88;;;;;;;;;;4988553;28;98220;-71
2023/08/10 06:22:39;;;;;;;4.20;2.35;;;;;;;;;;4996871;28;98585;-72
2023/08/10 06:25:06;;;;;;;5.57;2.60;;;;;;;;;;4989918;28;100105;-72
2023/08/10 06:27:35;;;;;;;5.07;2.08;;;;;;;;;;4990930;28;98212;-73
2023/08/10 06:30:03;;;;;;;2.72;2.00;;;;;;;;;;4971727;28;101030;-71
2023/08/10 06:32:29;;;;;;;2.30;2.10;;;;;;;;;;4984578;28;100139;-70
2023/08/10 06:34:56;;;;;;;3.47;2.40;;;;;;;;;;4974131;28;99237;-70
2023/08/10 06:37:22;;;;;;;4.32;1.85;;;;;;;;;;4975831;28;98446;-72
2023/08/10 06:39:50;;;;;;;2.88;1.83;;;;;;;;;;4981744;28;99098;-74
2023/08/10 06:42:19;;;;;;;6.90;2.03;;;;;;;;;;4975663;28;101145;-73
2023/08/10 06:44:54;;;;;;;2.33;1.52;;;;;;;;;;4986783;28;100008;-73
2023/08/10 06:47:20;;;;;;;3.30;1.95;;;;;;;;;;4980344;28;98228;-73
2023/08/10 06:49:47;;;;;;;3.13;2.25;;;;;;;;;;4990983;28;98582;-73
2023/08/10 06:52:13;;;;;;;3.58;2.20;;;;;;;;;;4989998;28;100194;-73
2023/08/10 06:54:40;;;;;;;6.53;2.50;;;;;;;;;;4989811;28;98262;-72
2023/08/10 06:57:06;;;;;;;4.05;2.30;;;;;;;;;;4984325;28;100835;-72
2023/08/10 06:59:33;;;;;;;6.50;2.42;;;;;;;;;;4989678;28;98912;-72
2023/08/10 07:02:03;;;;;;;4.95;2.60;;;;;;;;;;4993210;28;98346;-72
2023/08/10 07:04:29;;;;;;;4.75;2.38;;;;;;;;;;4989701;28;99825;-73
2023/08/10 07:06:55;;;;;;;5.07;3.28;;;;;;;;;;4990687;28;98205;-71
2023/08/10 07:09:25;;;;;;;6.05;2.65;;;;;;;;;;4989242;28;98846;-73
2023/08/10 07:11:51;;;;;;;4.63;2.30;;;;;;;;;;4990469;28;100035;-72
2023/08/10 07:14:18;;;;;;;9.40;2.78;;;;;;;;;;4990886;28;98165;-72
2023/08/10 07:16:44;;;;;;;5.03;2.63;;;;;;;;;;4990437;28;99286;-72
2023/08/10 07:19:10;;;;;;;2.55;1.95;;;;;;;;;;4990402;28;98924;-72
2023/08/10 07:21:37;;;;;;;5.07;1.52;;;;;;;;;;4989756;28;98227;-72
2023/08/10 07:24:05;;;;;;;5.50;2.38;;;;;;;;;;4993228;28;98838;-71
2023/08/10 07:26:32;;;;;;;4.60;1.88;;;;;;;;;;4992237;28;98209;-72
2023/08/10 07:28:59;;;;;;;3.92;1.90;;;;;;;;;;4982574;28;99650;-71
2023/08/10 07:31:28;;;;;;;3.83;1.70;;;;;;;;;;4990118;28;98959;-71
2023/08/10 07:33:55;;;;;;;1.63;1.30;;;;;;;;;;4991009;28;98235;-71
2023/08/10 07:36:21;;;;;;;5.93;1.42;;;;;;;;;;4993609;27;98614;-71
2023/08/10 07:38:48;;;;;;;3.42;1.90;;;;;;;;;;4993543;28;100241;-72
2023/08/10 07:41:14;;;;;;;3.22;1.73;;;;;;;;;;4982186;28;98269;-71
2023/08/10 07:43:41;;;;;;;2.25;2.00;;;;;;;;;;4982579;28;98720;-72
2023/08/10 07:46:07;;;;;;;3.00;1.90;;;;;;;;;;4978103;28;99140;-73
2023/08/10 07:48:34;;;;;;;5.95;2.15;;;;;;;;;;4981704;28;98491;-72
2023/08/10 07:51:01;;;;;;;4.47;1.92;;;;;;;;;;4975449;28;98846;-72
2023/08/10 07:53:28;;;;;;;2.47;2.28;;;;;;;;;;4992982;28;98205;-73
2023/08/10 07:55:55;;;;;;;2.13;1.80;;;;;;;;;;4985411;28;99270;-72
2023/08/10 07:58:21;;;;;;;7.45;1.73;;;;;;;;;;4976150;28;99872;-72
2023/08/10 08:00:48;;;;;;;1.55;1.45;;;;;;;;;;4992148;28;98281;-72
2023/08/10 08:03:14;;;;;;;4.03;1.73;;;;;;;;;;4992713;28;98591;-73
2023/08/10 08:05:41;;;;;;;1.17;1.13;;;;;;;;;;4992979;28;99947;-73
2023/08/10 08:08:07;;;;;;;2.10;1.42;;;;;;;;;;4996364;28;98052;-72
2023/08/10 08:10:34;;;;;;;1.38;1.15;;;;;;;;;;4982748;28;100023;-73
2023/08/10 08:13:06;;;;;;;1.35;1.17;;;;;;;;;;4986603;28;98105;-74
2023/08/10 08:15:36;;;;;;;1.48;1.25;;;;;;;;;;4992983;28;99350;-75
2023/08/10 08:18:21;;;;;;;2.50;0.95;;;;;;;;;;4972134;28;99934;-73
2023/08/10 08:20:47;;;;;;;1.35;1.00;;;;;;;;;;4973077;28;98175;-73
2023/08/10 08:23:14;;;;;;;12.98;1.20;;;;;;;;;;5001944;28;98686;-73
2023/08/10 08:25:40;;;;;;;1.83;0.90;;;;;;;;;;4980615;28;99993;-72
2023/08/10 08:28:06;;;;;;;2.70;1.65;;;;;;;;;;4980351;28;98503;-71
2023/08/10 08:30:33;;;;;;;1.17;1.08;;;;;;;;;;4992375;28;100108;-72
2023/08/10 08:32:59;;;;;;;6.88;1.02;;;;;;;;;;4991890;28;98318;-73
2023/08/10 08:35:26;;;;;;;4.40;1.30;;;;;;;;;;4985870;28;99385;-72
2023/08/10 08:37:53;;;;;;;1.55;0.98;;;;;;;;;;4971849;28;99876;-72
2023/08/10 08:40:19;;;;;;;3.60;1.17;;;;;;;;;;4972060;28;98340;-72
2023/08/10 08:42:47;;;;;;;1.27;1.02;;;;;;;;;;4985174;28;99366;-72
2023/08/10 08:45:14;;;;;;;2.78;1.02;;;;;;;;;;4992073;28;100385;-72
2023/08/10 08:47:42;;;;;;;1.25;1.02;;;;;;;;;;4991792;28;98362;-72
2023/08/10 08:50:09;;;;;;;2.85;1.10;;;;;;;;;;4995030;28;99400;-73
2023/08/10 08:52:36;;;;;;;0.80;0.80;;;;;;;;;;4992178;28;98323;-72
2023/08/10 08:55:03;;;;;;;2.45;0.80;;;;;;;;;;4991781;28;98792;-72
2023/08/10 08:57:30;;;;;;;3.03;1.40;;;;;;;;;;4991826;28;99837;-72
2023/08/10 08:59:56;;;;;;;2.05;0.90;;;;;;;;;;4991671;28;98554;-72
2023/08/10 09:02:23;;;;;;;1.98;0.90;;;;;;;;;;4984543;28;99386;-73
2023/08/10 09:04:51;;;;;;;1.98;1.25;;;;;;;;;;4972897;28;99166;-71
2023/08/10 09:07:18;;;;;;;1.20;0.80;;;;;;;;;;4972301;28;98239;-72
2023/08/10 09:09:44;;;;;;;2.97;1.08;;;;;;;;;;4972796;28;98658;-72
2023/08/10 09:12:29;;;;;;;6.07;1.52;;;;;;;;;;4975644;28;100022;-71
2023/08/10 09:15:09;;;;;;;1.55;1.00;;;;;;;;;;4972396;28;98813;-72
2023/08/10 09:17:36;;;;;;;1.77;1.30;;;;;;;;;;4971633;28;99231;-71
2023/08/10 09:20:06;;;;;;;1.80;1.00;;;;;;;;;;4972661;28;98297;-72
2023/08/10 09:22:33;;;;;;;1.42;0.90;;;;;;;;;;4971065;28;98573;-73
2023/08/10 09:25:00;;;;;;;2.65;1.00;;;;;;;;;;4971858;28;99366;-73
2023/08/10 09:27:28;;;;;;;2.78;1.10;;;;;;;;;;4971548;28;98262;-72
2023/08/10 09:29:58;;;;;;;1.05;1.05;;;;;;;;;;4971139;28;98696;-72
2023/08/10 09:32:24;;;;;;;2.20;1.35;;;;;;;;;;4971446;28;98973;-72
2023/08/10 09:34:53;;;;;;;1.08;0.98;;;;;;;;;;4975441;28;98886;-72
2023/08/10 09:37:20;;;;;;;2.88;1.13;;;;;;;;;;4970984;28;99151;-73
2023/08/10 09:39:52;;;;;;;1.40;1.30;;;;;;;;;;4972219;28;98215;-72
2023/08/10 09:42:19;;;;;;;1.40;1.30;;;;;;;;;;4988470;28;98701;-73
2023/08/10 09:44:46;;;;;;;4.95;1.50;;;;;;;;;;4992268;28;99125;-71
2023/08/10 09:47:13;;;;;;;2.60;1.10;;;;;;;;;;4991505;28;98248;-73
2023/08/10 09:49:55;;;;;;;1.58;1.33;;;;;;;;;;4989591;28;99370;-72
2023/08/10 09:52:23;;;;;;;2.10;1.30;;;;;;;;;;4990594;28;100151;-72
2023/08/10 09:54:50;;;;;;;1.05;1.00;;;;;;;;;;4991265;28;98252;-73
2023/08/10 09:57:20;;;;;;;1.55;1.23;;;;;;;;;;4991691;28;99280;-73
2023/08/10 09:59:46;;;;;;;1.63;1.15;;;;;;;;;;4971694;28;98902;-72
2023/08/10 10:02:14;;;;;;;2.58;1.40;;;;;;;;;;4971239;28;99244;-73
2023/08/10 10:04:44;;;;;;;2.63;1.25;;;;;;;;;;4969705;28;100102;-73
2023/08/10 10:07:11;;;;;;;1.97;1.83;;;;;;;;;;4971455;28;98917;-71
2023/08/10 10:09:40;;;;;;;6.45;1.65;;;;;;;;;;4972130;28;99039;-71
2023/08/10 10:12:07;;;;;;;2.35;2.00;;;;;;;;;;4970929;28;98875;-73
2023/08/10 10:14:41;;;;;;;2.53;1.65;;;;;;;;;;4971362;28;98231;-72
2023/08/10 10:17:12;;;;;;;4.90;1.80;;;;;;;;;;4971341;28;99319;-73
2023/08/10 10:19:38;;;;;;;1.85;1.75;;;;;;;;;;4973877;28;98189;-73
2023/08/10 10:22:05;;;;;;;1.92;1.42;;;;;;;;;;4971287;28;99793;-73
2023/08/10 10:24:33;;;;;;;1.52;1.42;;;;;;;;;;4969747;28;100155;-72
2023/08/10 10:27:01;;;;;;;7.80;1.85;;;;;;;;;;4971119;28;98183;-72
2023/08/10 10:29:37;;;;;;;2.67;1.98;;;;;;;;;;4970969;28;98746;-73
2023/08/10 10:32:10;;;;;;;3.75;2.00;;;;;;;;;;4970675;28;99157;-72
2023/08/10 10:34:37;;;;;;;7.50;2.33;;;;;;;;;;4972060;28;98251;-72
2023/08/10 10:37:14;;;;;;;2.72;1.88;;;;;;;;;;4971201;28;98909;-73
2023/08/10 10:39:41;;;;;;;4.80;1.92;;;;;;;;;;4973543;28;100065;-72
2023/08/10 10:42:11;;;;;;;4.55;2.13;;;;;;;;;;4971188;28;98479;-72
2023/08/10 10:44:56;;;;;;;2.03;1.75;;;;;;;;;;4971632;28;98922;-73
2023/08/10 10:47:32;;;;;;;9.25;1.52;;;;;;;;;;4970048;28;98248;-74
2023/08/10 10:49:59;;;;;;;1.65;1.55;;;;;;;;;;4971342;28;98752;-73
2023/08/10 10:52:36;;;;;;;2.97;2.20;;;;;;;;;;4969987;28;98585;-74
2023/08/10 10:55:05;;;;;;;6.78;1.95;;;;;;;;;;4970643;28;98105;-72
2023/08/10 10:57:33;;;;;;;3.58;1.88;;;;;;;;;;4970432;28;99829;-72
2023/08/10 10:59:59;;;;;;;2.00;1.70;;;;;;;;;;4979101;28;99118;-71
2023/08/10 11:02:32;;;;;;;3.15;2.03;;;;;;;;;;4993807;28;98510;-72
2023/08/10 11:04:59;;;;;;;2.10;1.77;;;;;;;;;;4988479;28;99120;-72
2023/08/10 11:07:25;;;;;;;5.40;1.90;;;;;;;;;;4989283;28;98268;-73
2023/08/10 11:09:52;;;;;;;2.28;1.80;;;;;;;;;;4991074;28;98502;-73
2023/08/10 11:12:20;;;;;;;2.10;1.80;;;;;;;;;;4990280;28;99782;-72
2023/08/10 11:14:46;;;;;;;1.55;1.45;;;;;;;;;;4990325;28;99428;-71
2023/08/10 11:17:12;;;;;;;2.28;1.48;;;;;;;;;;4990298;28;99467;-71
2023/08/10 11:19:39;;;;;;;3.17;1.17;;;;;;;;;;4989788;28;99162;-73
2023/08/10 11:22:05;;;;;;;2.90;1.48;;;;;;;;;;4989625;28;98276;-72
2023/08/10 11:24:33;;;;;;;4.53;1.73;;;;;;;;;;4992867;28;98344;-73
2023/08/10 11:27:00;;;;;;;2.50;1.63;;;;;;;;;;4986816;28;99139;-72
2023/08/10 11:29:28;;;;;;;2.47;1.63;;;;;;;;;;4969295;28;99276;-72
2023/08/10 11:31:54;;;;;;;1.65;1.40;;;;;;;;;;4970428;28;99070;-71
2023/08/10 11:34:24;;;;;;;4.68;1.48;;;;;;;;;;4970608;28;98272;-71
2023/08/10 11:36:52;;;;;;;3.15;1.55;;;;;;;;;;4969665;28;99313;-71
2023/08/10 11:39:18;;;;;;;1.75;1.65;;;;;;;;;;4969582;28;99260;-72
2023/08/10 11:41:45;;;;;;;1.30;1.20;;;;;;;;;;4982146;28;97957;-71
2023/08/10 11:44:36;;;;;;;1.80;1.30;;;;;;;;;;4990007;28;99065;-71
2023/08/10 11:47:04;;;;;;;1.45;1.35;;;;;;;;;;4993265;28;99139;-71
2023/08/10 11:49:32;;;;;;;2.10;1.90;;;;;;;;;;4989325;28;98863;-71
2023/08/10 11:52:00;;;;;;;4.32;2.03;;;;;;;;;;4980655;28;99965;-71
2023/08/10 11:54:27;;;;;;;2.15;1.48;;;;;;;;;;4969824;28;98534;-72
2023/08/10 11:56:55;;;;;;;2.67;1.90;;;;;;;;;;4968951;28;98513;-71
2023/08/10 11:59:21;;;;;;;6.78;1.80;;;;;;;;;;4969740;28;100377;-72
2023/08/10 12:01:52;;;;;;;4.93;1.42;;;;;;;;;;4970585;28;98795;-72
2023/08/10 12:04:19;;;;;;;1.90;1.40;;;;;;;;;;4969850;28;98454;-71
2023/08/10 12:06:46;;;;;;;3.97;1.45;;;;;;;;;;4976256;28;98949;-71
2023/08/10 12:09:13;;;;;;;2.17;1.50;;;;;;;;;;4982233;28;98232;-71
2023/08/10 12:11:39;;;;;;;4.78;1.40;;;;;;;;;;4970227;28;98988;-72
2023/08/10 12:14:08;;;;;;;1.67;1.50;;;;;;;;;;4973913;28;98199;-72
2023/08/10 12:16:35;;;;;;;2.78;1.15;;;;;;;;;;4973727;28;98627;-73
2023/08/10 12:19:01;;;;;;;1.40;1.30;;;;;;;;;;4972632;28;99046;-72
2023/08/10 12:21:28;;;;;;;2.22;1.52;;;;;;;;;;4972463;28;98184;-73
2023/08/10 12:23:55;;;;;;;2.40;1.50;;;;;;;;;;4972262;28;99584;-72
2023/08/10 12:26:22;;;;;;;2.25;1.25;;;;;;;;;;4979468;28;100149;-72
2023/08/10 12:28:48;;;;;;;1.83;1.20;;;;;;;;;;4976040;28;98397;-73
2023/08/10 12:31:16;;;;;;;1.75;1.30;;;;;;;;;;4971851;28;100225;-71
2023/08/10 12:33:42;;;;;;;4.28;1.45;;;;;;;;;;4972702;28;98263;-71
2023/08/10 12:36:09;;;;;;;2.45;1.42;;;;;;;;;;4972838;28;98435;-71
2023/08/10 12:38:35;;;;;;;1.50;1.05;;;;;;;;;;4971720;28;99012;-72
2023/08/10 12:41:02;;;;;;;1.58;1.40;;;;;;;;;;4972896;28;98282;-71
2023/08/10 12:43:28;;;;;;;1.92;1.23;;;;;;;;;;4972939;28;99324;-72
2023/08/10 12:45:55;;;;;;;1.73;1.30;;;;;;;;;;4971621;28;99919;-73
2023/08/10 12:48:21;;;;;;;1.55;1.30;;;;;;;;;;4972434;28;98316;-72
2023/08/10 12:50:48;;;;;;;3.90;0.98;;;;;;;;;;4975549;28;99787;-72
2023/08/10 12:53:15;;;;;;;5.65;1.58;;;;;;;;;;4971968;28;98437;-71
2023/08/10 12:55:41;;;;;;;2.30;0.98;;;;;;;;;;4973347;28;98506;-73
2023/08/10 12:58:11;;;;;;;7.75;1.23;;;;;;;;;;4972015;28;99915;-70
2023/08/10 13:00:37;;;;;;;6.53;1.45;;;;;;;;;;4971526;28;98203;-71
2023/08/10 13:03:04;;;;;;;5.28;1.02;;;;;;;;;;4972675;28;99461;-71
2023/08/10 13:05:30;;;;;;;1.92;1.15;;;;;;;;;;4971889;28;98952;-71
2023/08/10 13:07:57;;;;;;;4.05;1.40;;;;;;;;;;4971625;28;98259;-71
2023/08/10 13:10:24;;;;;;;1.35;1.17;;;;;;;;;;4972312;28;98486;-72
2023/08/10 13:12:51;;;;;;;2.85;1.10;;;;;;;;;;4976577;28;98908;-72
2023/08/10 13:15:18;;;;;;;1.20;1.10;;;;;;;;;;4973437;28;98773;-71
2023/08/10 13:17:45;;;;;;;1.35;1.23;;;;;;;;;;4973386;28;98853;-71
2023/08/10 13:20:11;;;;;;;2.35;1.52;;;;;;;;;;4971259;28;98266;-71
2023/08/10 13:22:38;;;;;;;1.27;1.10;;;;;;;;;;4987755;28;99305;-72
2023/08/10 13:25:05;;;;;;;1.58;1.05;;;;;;;;;;4991559;28;100167;-73
2023/08/10 13:27:32;;;;;;;1.20;1.10;;;;;;;;;;4991107;28;98221;-71
2023/08/10 13:29:59;;;;;;;1.45;1.23;;;;;;;;;;4991794;28;98319;-72
2023/08/10 13:32:25;;;;;;;3.85;1.52;;;;;;;;;;4991179;28;98946;-71
2023/08/10 13:34:52;;;;;;;4.35;1.23;;;;;;;;;;4994133;28;98435;-71
2023/08/10 13:37:19;;;;;;;1.40;1.30;;;;;;;;;;4991111;28;100053;-72
2023/08/10 13:39:45;;;;;;;1.90;1.25;;;;;;;;;;4991927;28;98248;-71
2023/08/10 13:42:12;;;;;;;1.40;1.30;;;;;;;;;;4990074;28;99308;-70
2023/08/10 13:44:38;;;;;;;1.27;1.17;;;;;;;;;;4991497;28;98903;-71
2023/08/10 13:47:05;;;;;;;1.45;1.30;;;;;;;;;;4991919;28;98328;-72
2023/08/10 13:49:31;;;;;;;1.40;1.30;;;;;;;;;;4990880;28;98588;-72
2023/08/10 13:52:17;;;;;;;1.20;1.05;;;;;;;;;;4976231;28;99004;-72
2023/08/10 13:54:44;;;;;;;1.52;1.15;;;;;;;;;;4971768;28;98251;-72
2023/08/10 13:57:16;;;;;;;1.60;1.10;;;;;;;;;;4974042;28;98583;-72
2023/08/10 13:59:44;;;;;;;3.70;1.30;;;;;;;;;;4971229;28;98329;-72
2023/08/10 14:02:10;;;;;;;3.10;1.30;;;;;;;;;;4971855;28;98590;-72
2023/08/10 14:04:37;;;;;;;4.45;1.10;;;;;;;;;;4970384;28;100002;-73
2023/08/10 14:07:04;;;;;;;1.30;1.20;;;;;;;;;;4973187;28;99055;-73
2023/08/10 14:09:31;;;;;;;1.52;1.40;;;;;;;;;;4990286;28;99373;-72
2023/08/10 14:11:58;;;;;;;4.65;1.90;;;;;;;;;;4991451;28;99184;-73
2023/08/10 14:14:26;;;;;;;1.40;1.25;;;;;;;;;;4991276;28;98242;-73
2023/08/10 14:16:52;;;;;;;3.05;1.55;;;;;;;;;;4990978;28;98429;-72
2023/08/10 14:19:19;;;;;;;13.35;1.42;;;;;;;;;;4994183;28;98907;-72
2023/08/10 14:21:45;;;;;;;4.53;1.30;;;;;;;;;;4978028;28;98346;-71
2023/08/10 14:24:12;;;;;;;6.80;1.58;;;;;;;;;;4969113;28;99985;-73
2023/08/10 14:26:38;;;;;;;1.27;1.25;;;;;;;;;;4971670;28;98232;-71
2023/08/10 14:29:05;;;;;;;1.92;1.27;;;;;;;;;;4971587;28;98429;-72
2023/08/10 14:31:33;;;;;;;1.77;1.67;;;;;;;;;;4970247;28;98975;-72
2023/08/10 14:34:00;;;;;;;3.92;1.27;;;;;;;;;;4970784;28;98267;-71
2023/08/10 14:36:26;;;;;;;2.00;1.15;;;;;;;;;;4970197;28;99332;-74
2023/08/10 14:38:53;;;;;;;1.45;1.20;;;;;;;;;;4972662;28;98895;-73
2023/08/10 14:41:19;;;;;;;4.03;1.40;;;;;;;;;;4980858;28;99692;-73
2023/08/10 14:43:46;;;;;;;2.78;1.63;;;;;;;;;;4980677;28;99040;-73